sensor_id;sensor_type;location;lat;lon;timestamp;P1;durP1;ratioP1;P2;durP2;ratioP2
72053;SDS011;59918;51.280;7.950;2022-09-29T00:02:15;13.02;;;8.88;;
72053;SDS011;59918;51.280;7.950;2022-09-29T00:04:41;15.50;;;9.55;;
72053;SDS011;59918;51.280;7.950;2022-09-29T00:07:06;10.68;;;8.45;;
72053;SDS011;59918;51.280;7.950;2022-09-29T00:09:31;14.68;;;9.85;;
72053;SDS011;59918;51.280;7.950;2022-09-29T00:11:56;16.35;;;10.05;;
72053;SDS011;59918;51.280;7.950;2022-09-29T00:14:22;14.82;;;9.65;;
72053;SDS011;59918;51.280;7.950;2022-09-29T00:16:48;12.77;;;8.57;;
72053;SDS011;59918;51.280;7.950;2022-09-29T00:19:13;12.95;;;8.75;;
72053;SDS011;59918;51.280;7.950;2022-09-29T00:21:39;12.68;;;9.30;;
72053;SDS011;59918;51.280;7.950;2022-09-29T00:24:04;12.45;;;9.50;;
72053;SDS011;59918;51.280;7.950;2022-09-29T00:26:29;17.23;;;9.80;;
72053;SDS011;59918;51.280;7.950;2022-09-29T00:28:55;16.23;;;9.55;;
72053;SDS011;59918;51.280;7.950;2022-09-29T00:31:25;13.50;;;9.23;;
72053;SDS011;59918;51.280;7.950;2022-09-29T00:33:52;13.30;;;8.80;;
72053;SDS011;59918;51.280;7.950;2022-09-29T00:36:18;13.15;;;9.05;;
72053;SDS011;59918;51.280;7.950;2022-09-29T00:38:45;13.50;;;8.43;;
72053;SDS011;59918;51.280;7.950;2022-09-29T00:41:12;14.13;;;7.68;;
72053;SDS011;59918;51.280;7.950;2022-09-29T00:43:47;10.82;;;7.70;;
72053;SDS011;59918;51.280;7.950;2022-09-29T00:46:44;14.20;;;8.97;;
72053;SDS011;59918;51.280;7.950;2022-09-29T00:49:36;17.95;;;8.98;;
72053;SDS011;59918;51.280;7.950;2022-09-29T00:54:42;14.07;;;8.18;;
72053;SDS011;59918;51.280;7.950;2022-09-29T00:57:13;12.15;;;8.43;;
72053;SDS011;59918;51.280;7.950;2022-09-29T00:59:48;11.23;;;7.78;;
72053;SDS011;59918;51.280;7.950;2022-09-29T01:02:18;13.43;;;8.43;;
72053;SDS011;59918;51.280;7.950;2022-09-29T01:04:44;13.82;;;8.60;;
72053;SDS011;59918;51.280;7.950;2022-09-29T01:07:11;14.23;;;8.38;;
72053;SDS011;59918;51.280;7.950;2022-09-29T01:09:38;13.75;;;8.68;;
72053;SDS011;59918;51.280;7.950;2022-09-29T01:12:05;13.63;;;8.77;;
72053;SDS011;59918;51.280;7.950;2022-09-29T01:14:31;12.73;;;7.75;;
72053;SDS011;59918;51.280;7.950;2022-09-29T01:16:58;14.48;;;9.07;;
72053;SDS011;59918;51.280;7.950;2022-09-29T01:22:13;15.70;;;8.77;;
72053;SDS011;59918;51.280;7.950;2022-09-29T01:36:02;13.02;;;8.45;;
72053;SDS011;59918;51.280;7.950;2022-09-29T01:41:12;14.18;;;8.80;;
72053;SDS011;59918;51.280;7.950;2022-09-29T01:44:05;16.55;;;9.05;;
72053;SDS011;59918;51.280;7.950;2022-09-29T01:46:45;15.00;;;10.25;;
72053;SDS011;59918;51.280;7.950;2022-09-29T01:49:13;21.70;;;10.90;;
72053;SDS011;59918;51.280;7.950;2022-09-29T01:51:42;21.02;;;11.02;;
72053;SDS011;59918;51.280;7.950;2022-09-29T01:54:13;16.35;;;10.63;;
72053;SDS011;59918;51.280;7.950;2022-09-29T01:56:43;21.75;;;10.32;;
72053;SDS011;59918;51.280;7.950;2022-09-29T02:01:43;12.32;;;8.80;;
72053;SDS011;59918;51.280;7.950;2022-09-29T02:04:28;19.20;;;9.38;;
72053;SDS011;59918;51.280;7.950;2022-09-29T02:07:01;17.40;;;10.30;;
72053;SDS011;59918;51.280;7.950;2022-09-29T02:09:32;20.55;;;10.48;;
72053;SDS011;59918;51.280;7.950;2022-09-29T02:12:03;17.20;;;10.75;;
72053;SDS011;59918;51.280;7.950;2022-09-29T02:14:34;18.13;;;10.80;;
72053;SDS011;59918;51.280;7.950;2022-09-29T02:17:07;17.58;;;10.70;;
72053;SDS011;59918;51.280;7.950;2022-09-29T02:19:39;15.95;;;9.95;;
72053;SDS011;59918;51.280;7.950;2022-09-29T02:22:06;21.58;;;10.88;;
72053;SDS011;59918;51.280;7.950;2022-09-29T02:24:34;19.25;;;9.63;;
72053;SDS011;59918;51.280;7.950;2022-09-29T02:27:00;17.63;;;9.38;;
72053;SDS011;59918;51.280;7.950;2022-09-29T02:29:27;21.23;;;11.00;;
72053;SDS011;59918;51.280;7.950;2022-09-29T02:31:52;17.00;;;9.55;;
72053;SDS011;59918;51.280;7.950;2022-09-29T02:34:20;18.85;;;10.65;;
72053;SDS011;59918;51.280;7.950;2022-09-29T02:39:39;17.67;;;9.45;;
72053;SDS011;59918;51.280;7.950;2022-09-29T02:42:18;20.38;;;9.07;;
72053;SDS011;59918;51.280;7.950;2022-09-29T02:55:40;17.50;;;9.70;;
72053;SDS011;59918;51.280;7.950;2022-09-29T02:58:09;20.10;;;10.18;;
72053;SDS011;59918;51.280;7.950;2022-09-29T03:00:39;18.23;;;9.60;;
72053;SDS011;59918;51.280;7.950;2022-09-29T03:03:05;18.95;;;9.10;;
72053;SDS011;59918;51.280;7.950;2022-09-29T03:05:31;23.48;;;11.30;;
72053;SDS011;59918;51.280;7.950;2022-09-29T03:07:56;20.00;;;9.60;;
72053;SDS011;59918;51.280;7.950;2022-09-29T03:10:21;18.35;;;8.82;;
72053;SDS011;59918;51.280;7.950;2022-09-29T03:12:46;22.27;;;8.57;;
72053;SDS011;59918;51.280;7.950;2022-09-29T03:15:12;19.10;;;9.77;;
72053;SDS011;59918;51.280;7.950;2022-09-29T03:17:38;25.60;;;9.38;;
72053;SDS011;59918;51.280;7.950;2022-09-29T03:20:04;18.15;;;8.73;;
72053;SDS011;59918;51.280;7.950;2022-09-29T03:22:29;24.20;;;9.65;;
72053;SDS011;59918;51.280;7.950;2022-09-29T03:24:54;22.77;;;9.68;;
72053;SDS011;59918;51.280;7.950;2022-09-29T03:27:20;24.13;;;10.35;;
72053;SDS011;59918;51.280;7.950;2022-09-29T03:29:45;27.55;;;9.95;;
72053;SDS011;59918;51.280;7.950;2022-09-29T03:32:10;23.83;;;8.93;;
72053;SDS011;59918;51.280;7.950;2022-09-29T03:34:36;22.55;;;9.65;;
72053;SDS011;59918;51.280;7.950;2022-09-29T03:37:01;23.60;;;10.15;;
72053;SDS011;59918;51.280;7.950;2022-09-29T03:39:26;25.17;;;9.75;;
72053;SDS011;59918;51.280;7.950;2022-09-29T03:41:52;26.23;;;9.75;;
72053;SDS011;59918;51.280;7.950;2022-09-29T03:44:18;33.20;;;12.25;;
72053;SDS011;59918;51.280;7.950;2022-09-29T03:46:43;26.23;;;10.10;;
72053;SDS011;59918;51.280;7.950;2022-09-29T03:49:09;24.25;;;9.80;;
72053;SDS011;59918;51.280;7.950;2022-09-29T03:51:35;27.63;;;9.95;;
72053;SDS011;59918;51.280;7.950;2022-09-29T03:54:00;28.40;;;10.15;;
72053;SDS011;59918;51.280;7.950;2022-09-29T03:56:25;28.60;;;9.63;;
72053;SDS011;59918;51.280;7.950;2022-09-29T03:58:50;26.13;;;9.38;;
72053;SDS011;59918;51.280;7.950;2022-09-29T04:01:16;25.15;;;10.25;;
72053;SDS011;59918;51.280;7.950;2022-09-29T04:03:41;25.80;;;9.52;;
72053;SDS011;59918;51.280;7.950;2022-09-29T04:06:06;30.77;;;11.20;;
72053;SDS011;59918;51.280;7.950;2022-09-29T04:08:31;23.77;;;9.38;;
72053;SDS011;59918;51.280;7.950;2022-09-29T04:10:59;26.23;;;10.27;;
72053;SDS011;59918;51.280;7.950;2022-09-29T04:13:25;26.08;;;10.02;;
72053;SDS011;59918;51.280;7.950;2022-09-29T04:15:50;26.30;;;10.35;;
72053;SDS011;59918;51.280;7.950;2022-09-29T04:18:15;30.17;;;9.98;;
72053;SDS011;59918;51.280;7.950;2022-09-29T04:20:41;27.48;;;9.90;;
72053;SDS011;59918;51.280;7.950;2022-09-29T04:23:06;28.58;;;10.50;;
72053;SDS011;59918;51.280;7.950;2022-09-29T04:25:32;30.38;;;10.13;;
72053;SDS011;59918;51.280;7.950;2022-09-29T04:27:57;26.50;;;10.48;;
72053;SDS011;59918;51.280;7.950;2022-09-29T04:30:22;25.48;;;10.25;;
72053;SDS011;59918;51.280;7.950;2022-09-29T04:32:48;28.27;;;9.68;;
72053;SDS011;59918;51.280;7.950;2022-09-29T04:35:13;31.48;;;10.30;;
72053;SDS011;59918;51.280;7.950;2022-09-29T04:37:38;32.53;;;10.52;;
72053;SDS011;59918;51.280;7.950;2022-09-29T04:40:04;32.90;;;11.48;;
72053;SDS011;59918;51.280;7.950;2022-09-29T04:42:29;29.13;;;11.43;;
72053;SDS011;59918;51.280;7.950;2022-09-29T04:44:55;31.90;;;10.40;;
72053;SDS011;59918;51.280;7.950;2022-09-29T04:47:20;29.73;;;11.00;;
72053;SDS011;59918;51.280;7.950;2022-09-29T04:49:45;29.88;;;11.90;;
72053;SDS011;59918;51.280;7.950;2022-09-29T04:52:11;35.17;;;9.73;;
72053;SDS011;59918;51.280;7.950;2022-09-29T04:54:37;26.83;;;10.00;;
72053;SDS011;59918;51.280;7.950;2022-09-29T04:57:02;24.67;;;9.70;;
72053;SDS011;59918;51.280;7.950;2022-09-29T04:59:27;27.42;;;10.80;;
72053;SDS011;59918;51.280;7.950;2022-09-29T05:01:53;28.63;;;11.52;;
72053;SDS011;59918;51.280;7.950;2022-09-29T05:04:18;28.92;;;10.75;;
72053;SDS011;59918;51.280;7.950;2022-09-29T05:06:44;32.75;;;9.70;;
72053;SDS011;59918;51.280;7.950;2022-09-29T05:09:12;29.73;;;10.10;;
72053;SDS011;59918;51.280;7.950;2022-09-29T05:11:37;26.20;;;9.95;;
72053;SDS011;59918;51.280;7.950;2022-09-29T05:14:03;24.90;;;9.50;;
72053;SDS011;59918;51.280;7.950;2022-09-29T05:16:28;26.80;;;9.30;;
72053;SDS011;59918;51.280;7.950;2022-09-29T05:18:53;24.17;;;9.68;;
72053;SDS011;59918;51.280;7.950;2022-09-29T05:21:19;25.52;;;9.77;;
72053;SDS011;59918;51.280;7.950;2022-09-29T05:23:44;31.48;;;8.27;;
72053;SDS011;59918;51.280;7.950;2022-09-29T05:26:10;24.23;;;8.60;;
72053;SDS011;59918;51.280;7.950;2022-09-29T05:28:37;29.50;;;10.65;;
72053;SDS011;59918;51.280;7.950;2022-09-29T05:31:07;22.38;;;8.55;;
72053;SDS011;59918;51.280;7.950;2022-09-29T05:33:33;19.42;;;8.82;;
72053;SDS011;59918;51.280;7.950;2022-09-29T05:35:59;30.65;;;9.25;;
72053;SDS011;59918;51.280;7.950;2022-09-29T05:38:25;25.15;;;9.90;;
72053;SDS011;59918;51.280;7.950;2022-09-29T05:40:50;32.35;;;9.98;;
72053;SDS011;59918;51.280;7.950;2022-09-29T05:43:16;23.85;;;9.35;;
72053;SDS011;59918;51.280;7.950;2022-09-29T05:45:42;22.42;;;9.60;;
72053;SDS011;59918;51.280;7.950;2022-09-29T05:48:07;20.88;;;8.70;;
72053;SDS011;59918;51.280;7.950;2022-09-29T05:50:33;23.63;;;9.23;;
72053;SDS011;59918;51.280;7.950;2022-09-29T05:53:02;22.55;;;9.35;;
72053;SDS011;59918;51.280;7.950;2022-09-29T05:55:27;22.98;;;9.80;;
72053;SDS011;59918;51.280;7.950;2022-09-29T05:57:52;26.88;;;9.70;;
72053;SDS011;59918;51.280;7.950;2022-09-29T06:00:18;20.45;;;9.15;;
72053;SDS011;59918;51.280;7.950;2022-09-29T06:02:43;20.70;;;9.10;;
72053;SDS011;59918;51.280;7.950;2022-09-29T06:05:11;17.40;;;8.73;;
72053;SDS011;59918;51.280;7.950;2022-09-29T06:07:36;25.88;;;9.15;;
72053;SDS011;59918;51.280;7.950;2022-09-29T06:10:02;20.45;;;9.38;;
72053;SDS011;59918;51.280;7.950;2022-09-29T06:12:27;18.20;;;8.32;;
72053;SDS011;59918;51.280;7.950;2022-09-29T06:14:52;17.70;;;8.80;;
72053;SDS011;59918;51.280;7.950;2022-09-29T06:17:18;17.75;;;8.60;;
72053;SDS011;59918;51.280;7.950;2022-09-29T06:19:43;16.42;;;8.70;;
72053;SDS011;59918;51.280;7.950;2022-09-29T06:22:08;17.30;;;8.13;;
72053;SDS011;59918;51.280;7.950;2022-09-29T06:24:33;15.95;;;8.88;;
72053;SDS011;59918;51.280;7.950;2022-09-29T06:26:58;9.63;;;6.60;;
72053;SDS011;59918;51.280;7.950;2022-09-29T06:29:24;10.85;;;6.45;;
72053;SDS011;59918;51.280;7.950;2022-09-29T06:31:49;11.13;;;6.72;;
72053;SDS011;59918;51.280;7.950;2022-09-29T06:34:14;9.82;;;6.95;;
72053;SDS011;59918;51.280;7.950;2022-09-29T06:36:40;9.50;;;6.03;;
72053;SDS011;59918;51.280;7.950;2022-09-29T06:39:07;11.93;;;6.50;;
72053;SDS011;59918;51.280;7.950;2022-09-29T06:41:33;9.30;;;5.78;;
72053;SDS011;59918;51.280;7.950;2022-09-29T06:44:01;9.77;;;6.10;;
72053;SDS011;59918;51.280;7.950;2022-09-29T06:46:27;9.40;;;5.97;;
72053;SDS011;59918;51.280;7.950;2022-09-29T06:48:52;7.13;;;5.85;;
72053;SDS011;59918;51.280;7.950;2022-09-29T06:51:18;8.10;;;5.72;;
72053;SDS011;59918;51.280;7.950;2022-09-29T06:53:44;6.35;;;5.13;;
72053;SDS011;59918;51.280;7.950;2022-09-29T06:56:09;7.22;;;5.90;;
72053;SDS011;59918;51.280;7.950;2022-09-29T06:58:35;16.15;;;10.25;;
72053;SDS011;59918;51.280;7.950;2022-09-29T07:01:01;10.43;;;6.00;;
72053;SDS011;59918;51.280;7.950;2022-09-29T07:03:28;7.00;;;5.10;;
72053;SDS011;59918;51.280;7.950;2022-09-29T07:05:54;6.50;;;5.65;;
72053;SDS011;59918;51.280;7.950;2022-09-29T07:08:19;7.55;;;5.47;;
72053;SDS011;59918;51.280;7.950;2022-09-29T07:10:44;5.18;;;4.68;;
72053;SDS011;59918;51.280;7.950;2022-09-29T07:13:10;5.15;;;4.68;;
72053;SDS011;59918;51.280;7.950;2022-09-29T07:15:36;6.45;;;5.38;;
72053;SDS011;59918;51.280;7.950;2022-09-29T07:18:03;4.88;;;4.40;;
72053;SDS011;59918;51.280;7.950;2022-09-29T07:20:29;7.47;;;4.80;;
72053;SDS011;59918;51.280;7.950;2022-09-29T07:22:55;6.60;;;5.15;;
72053;SDS011;59918;51.280;7.950;2022-09-29T07:25:21;5.05;;;4.60;;
72053;SDS011;59918;51.280;7.950;2022-09-29T07:27:46;7.45;;;5.50;;
72053;SDS011;59918;51.280;7.950;2022-09-29T07:30:12;5.85;;;5.25;;
72053;SDS011;59918;51.280;7.950;2022-09-29T07:32:38;5.80;;;5.20;;
72053;SDS011;59918;51.280;7.950;2022-09-29T07:35:03;7.45;;;5.13;;
72053;SDS011;59918;51.280;7.950;2022-09-29T07:37:29;4.93;;;4.53;;
72053;SDS011;59918;51.280;7.950;2022-09-29T07:39:54;5.75;;;4.85;;
72053;SDS011;59918;51.280;7.950;2022-09-29T07:42:19;4.55;;;4.15;;
72053;SDS011;59918;51.280;7.950;2022-09-29T07:44:45;4.95;;;4.55;;
72053;SDS011;59918;51.280;7.950;2022-09-29T07:47:10;4.95;;;4.35;;
72053;SDS011;59918;51.280;7.950;2022-09-29T07:49:35;4.07;;;3.75;;
72053;SDS011;59918;51.280;7.950;2022-09-29T07:52:01;5.13;;;4.47;;
72053;SDS011;59918;51.280;7.950;2022-09-29T07:54:26;4.68;;;3.75;;
72053;SDS011;59918;51.280;7.950;2022-09-29T07:56:51;5.20;;;4.65;;
72053;SDS011;59918;51.280;7.950;2022-09-29T07:59:17;4.75;;;3.65;;
72053;SDS011;59918;51.280;7.950;2022-09-29T08:01:42;4.82;;;4.32;;
72053;SDS011;59918;51.280;7.950;2022-09-29T08:04:07;6.35;;;4.53;;
72053;SDS011;59918;51.280;7.950;2022-09-29T08:06:32;4.25;;;3.83;;
72053;SDS011;59918;51.280;7.950;2022-09-29T08:08:59;5.13;;;4.30;;
72053;SDS011;59918;51.280;7.950;2022-09-29T08:11:25;6.28;;;4.30;;
72053;SDS011;59918;51.280;7.950;2022-09-29T08:13:50;5.35;;;3.70;;
72053;SDS011;59918;51.280;7.950;2022-09-29T08:16:16;4.40;;;4.00;;
72053;SDS011;59918;51.280;7.950;2022-09-29T08:18:41;5.50;;;4.88;;
72053;SDS011;59918;51.280;7.950;2022-09-29T08:21:09;4.35;;;3.95;;
72053;SDS011;59918;51.280;7.950;2022-09-29T08:23:37;5.15;;;4.45;;
72053;SDS011;59918;51.280;7.950;2022-09-29T08:26:07;3.88;;;3.45;;
72053;SDS011;59918;51.280;7.950;2022-09-29T08:28:34;2.97;;;2.78;;
72053;SDS011;59918;51.280;7.950;2022-09-29T08:31:01;3.47;;;3.20;;
72053;SDS011;59918;51.280;7.950;2022-09-29T08:33:31;3.72;;;3.42;;
72053;SDS011;59918;51.280;7.950;2022-09-29T08:35:57;4.65;;;3.83;;
72053;SDS011;59918;51.280;7.950;2022-09-29T08:38:23;3.47;;;3.28;;
72053;SDS011;59918;51.280;7.950;2022-09-29T08:40:49;4.07;;;3.22;;
72053;SDS011;59918;51.280;7.950;2022-09-29T08:43:20;4.78;;;3.80;;
72053;SDS011;59918;51.280;7.950;2022-09-29T08:45:55;4.38;;;3.65;;
72053;SDS011;59918;51.280;7.950;2022-09-29T08:48:42;3.20;;;3.00;;
72053;SDS011;59918;51.280;7.950;2022-09-29T08:51:15;3.60;;;2.83;;
72053;SDS011;59918;51.280;7.950;2022-09-29T08:53:56;4.90;;;3.35;;
72053;SDS011;59918;51.280;7.950;2022-09-29T08:56:25;3.10;;;2.83;;
72053;SDS011;59918;51.280;7.950;2022-09-29T08:58:50;3.20;;;3.00;;
72053;SDS011;59918;51.280;7.950;2022-09-29T09:01:20;3.17;;;2.97;;
72053;SDS011;59918;51.280;7.950;2022-09-29T09:09:14;7.10;;;4.68;;
72053;SDS011;59918;51.280;7.950;2022-09-29T09:20:24;4.78;;;3.58;;
72053;SDS011;59918;51.280;7.950;2022-09-29T09:22:55;4.70;;;3.42;;
72053;SDS011;59918;51.280;7.950;2022-09-29T09:25:35;3.85;;;3.22;;
72053;SDS011;59918;51.280;7.950;2022-09-29T09:28:07;3.20;;;2.70;;
72053;SDS011;59918;51.280;7.950;2022-09-29T09:30:41;3.00;;;2.80;;
72053;SDS011;59918;51.280;7.950;2022-09-29T09:33:18;2.85;;;2.65;;
72053;SDS011;59918;51.280;7.950;2022-09-29T09:35:52;2.92;;;2.63;;
72053;SDS011;59918;51.280;7.950;2022-09-29T09:38:25;3.25;;;2.95;;
72053;SDS011;59918;51.280;7.950;2022-09-29T09:40:58;3.17;;;2.80;;
72053;SDS011;59918;51.280;7.950;2022-09-29T09:45:56;5.13;;;2.75;;
72053;SDS011;59918;51.280;7.950;2022-09-29T09:48:34;3.13;;;2.80;;
72053;SDS011;59918;51.280;7.950;2022-09-29T09:54:15;4.05;;;2.60;;
72053;SDS011;59918;51.280;7.950;2022-09-29T09:56:49;3.30;;;3.03;;
72053;SDS011;59918;51.280;7.950;2022-09-29T10:01:53;4.80;;;2.67;;
72053;SDS011;59918;51.280;7.950;2022-09-29T10:04:18;4.65;;;3.40;;
72053;SDS011;59918;51.280;7.950;2022-09-29T10:06:45;5.20;;;3.30;;
72053;SDS011;59918;51.280;7.950;2022-09-29T10:09:11;6.60;;;3.15;;
72053;SDS011;59918;51.280;7.950;2022-09-29T10:11:39;4.38;;;2.95;;
72053;SDS011;59918;51.280;7.950;2022-09-29T10:14:10;6.25;;;3.63;;
72053;SDS011;59918;51.280;7.950;2022-09-29T10:22:25;3.30;;;3.03;;
72053;SDS011;59918;51.280;7.950;2022-09-29T10:24:53;3.95;;;3.22;;
72053;SDS011;59918;51.280;7.950;2022-09-29T10:27:29;7.32;;;3.38;;
72053;SDS011;59918;51.280;7.950;2022-09-29T10:29:55;4.32;;;3.25;;
72053;SDS011;59918;51.280;7.950;2022-09-29T10:32:28;4.28;;;2.88;;
72053;SDS011;59918;51.280;7.950;2022-09-29T10:35:00;4.05;;;3.05;;
72053;SDS011;59918;51.280;7.950;2022-09-29T10:37:35;3.40;;;3.10;;
72053;SDS011;59918;51.280;7.950;2022-09-29T10:42:34;4.23;;;3.20;;
72053;SDS011;59918;51.280;7.950;2022-09-29T10:45:07;3.38;;;2.20;;
72053;SDS011;59918;51.280;7.950;2022-09-29T10:47:36;2.30;;;2.10;;
72053;SDS011;59918;51.280;7.950;2022-09-29T10:50:13;2.75;;;2.20;;
72053;SDS011;59918;51.280;7.950;2022-09-29T10:52:50;2.67;;;2.40;;
72053;SDS011;59918;51.280;7.950;2022-09-29T10:55:22;3.28;;;2.40;;
72053;SDS011;59918;51.280;7.950;2022-09-29T10:57:59;3.75;;;2.10;;
72053;SDS011;59918;51.280;7.950;2022-09-29T11:00:28;1.83;;;1.70;;
72053;SDS011;59918;51.280;7.950;2022-09-29T11:03:01;2.42;;;1.80;;
72053;SDS011;59918;51.280;7.950;2022-09-29T11:05:26;2.05;;;1.85;;
72053;SDS011;59918;51.280;7.950;2022-09-29T11:07:52;2.10;;;1.85;;
72053;SDS011;59918;51.280;7.950;2022-09-29T11:10:34;3.70;;;1.80;;
72053;SDS011;59918;51.280;7.950;2022-09-29T11:15:48;2.30;;;2.10;;
72053;SDS011;59918;51.280;7.950;2022-09-29T11:18:31;5.45;;;1.83;;
72053;SDS011;59918;51.280;7.950;2022-09-29T11:21:43;1.98;;;1.85;;
72053;SDS011;59918;51.280;7.950;2022-09-29T11:26:32;6.70;;;2.03;;
72053;SDS011;59918;51.280;7.950;2022-09-29T11:32:14;3.72;;;1.63;;
72053;SDS011;59918;51.280;7.950;2022-09-29T11:40:21;1.58;;;1.45;;
72053;SDS011;59918;51.280;7.950;2022-09-29T11:45:37;0.88;;;0.88;;
72053;SDS011;59918;51.280;7.950;2022-09-29T11:48:36;2.23;;;1.40;;
72053;SDS011;59918;51.280;7.950;2022-09-29T11:53:51;1.80;;;1.33;;
72053;SDS011;59918;51.280;7.950;2022-09-29T11:59:11;1.75;;;1.63;;
72053;SDS011;59918;51.280;7.950;2022-09-29T12:17:45;3.10;;;2.80;;
72053;SDS011;59918;51.280;7.950;2022-09-29T12:20:16;1.55;;;1.45;;
72053;SDS011;59918;51.280;7.950;2022-09-29T12:25:13;1.80;;;1.27;;
72053;SDS011;59918;51.280;7.950;2022-09-29T12:27:41;4.10;;;1.40;;
72053;SDS011;59918;51.280;7.950;2022-09-29T12:30:17;4.07;;;1.90;;
72053;SDS011;59918;51.280;7.950;2022-09-29T12:32:51;6.20;;;2.05;;
72053;SDS011;59918;51.280;7.950;2022-09-29T12:40:37;2.22;;;1.20;;
72053;SDS011;59918;51.280;7.950;2022-09-29T12:54:40;2.53;;;1.60;;
72053;SDS011;59918;51.280;7.950;2022-09-29T12:56:58;2.07;;;1.00;;
72053;SDS011;59918;51.280;7.950;2022-09-29T13:02:15;3.42;;;1.42;;
72053;SDS011;59918;51.280;7.950;2022-09-29T13:29:19;3.55;;;2.20;;
72053;SDS011;59918;51.280;7.950;2022-09-29T13:31:47;2.35;;;1.98;;
72053;SDS011;59918;51.280;7.950;2022-09-29T13:34:20;2.22;;;1.67;;
72053;SDS011;59918;51.280;7.950;2022-09-29T13:36:48;2.80;;;1.90;;
72053;SDS011;59918;51.280;7.950;2022-09-29T13:39:19;3.55;;;2.30;;
72053;SDS011;59918;51.280;7.950;2022-09-29T13:41:46;3.25;;;2.25;;
72053;SDS011;59918;51.280;7.950;2022-09-29T13:46:40;2.47;;;2.22;;
72053;SDS011;59918;51.280;7.950;2022-09-29T13:54:30;2.40;;;2.20;;
72053;SDS011;59918;51.280;7.950;2022-09-29T14:07:47;5.55;;;2.60;;
72053;SDS011;59918;51.280;7.950;2022-09-29T14:10:24;5.13;;;2.30;;
72053;SDS011;59918;51.280;7.950;2022-09-29T14:12:54;13.95;;;5.88;;
72053;SDS011;59918;51.280;7.950;2022-09-29T14:15:23;5.15;;;2.75;;
72053;SDS011;59918;51.280;7.950;2022-09-29T14:17:53;2.90;;;2.58;;
72053;SDS011;59918;51.280;7.950;2022-09-29T14:20:23;2.97;;;2.20;;
72053;SDS011;59918;51.280;7.950;2022-09-29T14:25:29;3.63;;;1.90;;
72053;SDS011;59918;51.280;7.950;2022-09-29T14:27:59;4.30;;;1.90;;
72053;SDS011;59918;51.280;7.950;2022-09-29T14:36:01;9.85;;;4.75;;
72053;SDS011;59918;51.280;7.950;2022-09-29T14:38:41;1.92;;;1.75;;
72053;SDS011;59918;51.280;7.950;2022-09-29T14:43:44;3.13;;;1.80;;
72053;SDS011;59918;51.280;7.950;2022-09-29T14:46:31;5.45;;;2.08;;
72053;SDS011;59918;51.280;7.950;2022-09-29T14:52:07;3.67;;;2.60;;
72053;SDS011;59918;51.280;7.950;2022-09-29T15:00:15;2.28;;;1.42;;
72053;SDS011;59918;51.280;7.950;2022-09-29T15:02:43;3.10;;;1.65;;
72053;SDS011;59918;51.280;7.950;2022-09-29T15:05:12;3.17;;;1.65;;
72053;SDS011;59918;51.280;7.950;2022-09-29T15:07:51;1.60;;;1.45;;
72053;SDS011;59918;51.280;7.950;2022-09-29T15:10:21;4.28;;;2.20;;
72053;SDS011;59918;51.280;7.950;2022-09-29T15:12:48;2.55;;;1.10;;
72053;SDS011;59918;51.280;7.950;2022-09-29T15:15:27;2.42;;;2.10;;
72053;SDS011;59918;51.280;7.950;2022-09-29T15:17:56;2.00;;;1.80;;
72053;SDS011;59918;51.280;7.950;2022-09-29T15:20:31;6.00;;;1.83;;
72053;SDS011;59918;51.280;7.950;2022-09-29T15:25:56;3.45;;;2.05;;
72053;SDS011;59918;51.280;7.950;2022-09-29T15:28:26;1.88;;;1.75;;
72053;SDS011;59918;51.280;7.950;2022-09-29T15:30:53;4.70;;;2.30;;
72053;SDS011;59918;51.280;7.950;2022-09-29T15:33:25;3.17;;;1.60;;
72053;SDS011;59918;51.280;7.950;2022-09-29T15:35:56;3.15;;;2.25;;
72053;SDS011;59918;51.280;7.950;2022-09-29T15:38:31;1.40;;;1.30;;
72053;SDS011;59918;51.280;7.950;2022-09-29T15:43:40;3.55;;;1.45;;
72053;SDS011;59918;51.280;7.950;2022-09-29T15:49:09;5.35;;;2.55;;
72053;SDS011;59918;51.280;7.950;2022-09-29T15:51:37;4.65;;;2.80;;
72053;SDS011;59918;51.280;7.950;2022-09-29T15:54:04;5.07;;;2.60;;
72053;SDS011;59918;51.280;7.950;2022-09-29T15:56:31;3.70;;;2.65;;
72053;SDS011;59918;51.280;7.950;2022-09-29T15:58:56;2.28;;;2.10;;
72053;SDS011;59918;51.280;7.950;2022-09-29T16:01:21;4.10;;;2.60;;
72053;SDS011;59918;51.280;7.950;2022-09-29T16:03:48;3.97;;;3.22;;
72053;SDS011;59918;51.280;7.950;2022-09-29T16:06:26;2.83;;;2.58;;
72053;SDS011;59918;51.280;7.950;2022-09-29T16:08:57;4.38;;;3.05;;
72053;SDS011;59918;51.280;7.950;2022-09-29T16:11:32;8.25;;;5.55;;
72053;SDS011;59918;51.280;7.950;2022-09-29T16:14:00;6.40;;;4.90;;
72053;SDS011;59918;51.280;7.950;2022-09-29T16:16:32;7.68;;;5.13;;
72053;SDS011;59918;51.280;7.950;2022-09-29T16:19:01;7.10;;;4.10;;
72053;SDS011;59918;51.280;7.950;2022-09-29T16:21:31;6.90;;;3.60;;
72053;SDS011;59918;51.280;7.950;2022-09-29T16:23:59;4.53;;;3.00;;
72053;SDS011;59918;51.280;7.950;2022-09-29T16:29:00;3.95;;;3.45;;
72053;SDS011;59918;51.280;7.950;2022-09-29T16:31:29;7.97;;;6.70;;
72053;SDS011;59918;51.280;7.950;2022-09-29T16:33:56;9.35;;;6.82;;
72053;SDS011;59918;51.280;7.950;2022-09-29T16:36:24;7.45;;;5.38;;
72053;SDS011;59918;51.280;7.950;2022-09-29T16:38:50;5.88;;;5.00;;
72053;SDS011;59918;51.280;7.950;2022-09-29T16:43:48;2.60;;;1.85;;
72053;SDS011;59918;51.280;7.950;2022-09-29T16:46:16;4.30;;;1.95;;
72053;SDS011;59918;51.280;7.950;2022-09-29T16:48:43;4.70;;;1.63;;
72053;SDS011;59918;51.280;7.950;2022-09-29T16:51:13;4.30;;;1.50;;
72053;SDS011;59918;51.280;7.950;2022-09-29T16:53:40;2.35;;;1.30;;
72053;SDS011;59918;51.280;7.950;2022-09-29T16:56:10;2.05;;;1.13;;
72053;SDS011;59918;51.280;7.950;2022-09-29T16:59:30;3.67;;;1.20;;
72053;SDS011;59918;51.280;7.950;2022-09-29T17:01:49;2.85;;;1.75;;
72053;SDS011;59918;51.280;7.950;2022-09-29T17:04:14;4.35;;;1.40;;
72053;SDS011;59918;51.280;7.950;2022-09-29T17:06:44;3.70;;;1.50;;
72053;SDS011;59918;51.280;7.950;2022-09-29T17:09:15;1.92;;;1.80;;
72053;SDS011;59918;51.280;7.950;2022-09-29T17:11:42;3.67;;;1.53;;
72053;SDS011;59918;51.280;7.950;2022-09-29T17:14:08;2.80;;;1.67;;
72053;SDS011;59918;51.280;7.950;2022-09-29T17:16:35;8.13;;;2.63;;
72053;SDS011;59918;51.280;7.950;2022-09-29T17:19:00;2.22;;;1.77;;
72053;SDS011;59918;51.280;7.950;2022-09-29T17:21:25;7.07;;;1.88;;
72053;SDS011;59918;51.280;7.950;2022-09-29T17:23:51;2.63;;;1.90;;
72053;SDS011;59918;51.280;7.950;2022-09-29T17:26:24;14.10;;;2.58;;
72053;SDS011;59918;51.280;7.950;2022-09-29T17:28:54;8.50;;;2.00;;
72053;SDS011;59918;51.280;7.950;2022-09-29T17:31:19;1.95;;;1.65;;
72053;SDS011;59918;51.280;7.950;2022-09-29T17:33:44;3.17;;;1.70;;
72053;SDS011;59918;51.280;7.950;2022-09-29T17:36:10;4.05;;;2.17;;
72053;SDS011;59918;51.280;7.950;2022-09-29T17:38:37;2.65;;;2.08;;
72053;SDS011;59918;51.280;7.950;2022-09-29T17:41:03;2.22;;;1.85;;
72053;SDS011;59918;51.280;7.950;2022-09-29T17:43:30;1.98;;;1.80;;
72053;SDS011;59918;51.280;7.950;2022-09-29T17:45:56;4.53;;;1.90;;
72053;SDS011;59918;51.280;7.950;2022-09-29T17:48:22;2.42;;;2.00;;
72053;SDS011;59918;51.280;7.950;2022-09-29T17:50:48;2.53;;;1.92;;
72053;SDS011;59918;51.280;7.950;2022-09-29T17:53:15;4.88;;;2.22;;
72053;SDS011;59918;51.280;7.950;2022-09-29T17:55:41;2.95;;;2.00;;
72053;SDS011;59918;51.280;7.950;2022-09-29T17:58:10;2.88;;;2.53;;
72053;SDS011;59918;51.280;7.950;2022-09-29T18:00:38;6.97;;;2.92;;
72053;SDS011;59918;51.280;7.950;2022-09-29T18:03:10;5.93;;;2.35;;
72053;SDS011;59918;51.280;7.950;2022-09-29T18:05:40;3.58;;;2.63;;
72053;SDS011;59918;51.280;7.950;2022-09-29T18:08:12;7.85;;;2.55;;
72053;SDS011;59918;51.280;7.950;2022-09-29T18:13:18;3.90;;;2.25;;
72053;SDS011;59918;51.280;7.950;2022-09-29T18:15:44;2.83;;;2.55;;